Benton Ridge, Ohio
Current Conditions -  °F | °C
As of 12:53 AM on Saturday 20 Dec 2014 (Local Time) from KFDY Reporting Station
Overcast Overcast  
Wind Chill: 30°   Ceiling: 2400
Heat Index: 30°   Visibility: 10mi
Dew Point: 22°   Wind: 3mph
Humidity: 72%   Direction: 140°SE
Pressure: 30.25"   Gusts: NA
Location:  41°N, 83.79°W
Report Text: KFDY 200553Z AUTO 14003KT 10SM OVC024 M01/M06 A3025 RMK AO2 SLP250 T10111056 11006 21011 56005
Loading
Personal Weather Stations






























Interactive Weather Map New forecast layout! Learn more

10-Day Weather Forecast

Advertisements
Track Severe Weather on mobile